sensor_id;sensor_type;location;lat;lon;timestamp;P1;durP1;ratioP1;P2;durP2;ratioP2
18512;SDS011;9385;48.380;9.744;2023-01-31T00:00:52;8.30;;;3.33;;
18512;SDS011;9385;48.380;9.744;2023-01-31T00:03:19;8.23;;;3.87;;
18512;SDS011;9385;48.380;9.744;2023-01-31T00:05:46;7.07;;;3.83;;
18512;SDS011;9385;48.380;9.744;2023-01-31T00:08:13;10.13;;;3.63;;
18512;SDS011;9385;48.380;9.744;2023-01-31T00:10:40;9.50;;;3.75;;
18512;SDS011;9385;48.380;9.744;2023-01-31T00:13:08;9.02;;;3.78;;
18512;SDS011;9385;48.380;9.744;2023-01-31T00:15:35;8.77;;;3.60;;
18512;SDS011;9385;48.380;9.744;2023-01-31T00:18:02;8.13;;;3.50;;
18512;SDS011;9385;48.380;9.744;2023-01-31T00:20:28;8.65;;;3.72;;
18512;SDS011;9385;48.380;9.744;2023-01-31T00:22:55;7.18;;;3.63;;
18512;SDS011;9385;48.380;9.744;2023-01-31T00:25:23;7.22;;;3.20;;
18512;SDS011;9385;48.380;9.744;2023-01-31T00:27:50;7.90;;;3.10;;
18512;SDS011;9385;48.380;9.744;2023-01-31T00:30:18;7.40;;;3.63;;
18512;SDS011;9385;48.380;9.744;2023-01-31T00:32:45;6.28;;;3.20;;
18512;SDS011;9385;48.380;9.744;2023-01-31T00:35:12;8.63;;;3.10;;
18512;SDS011;9385;48.380;9.744;2023-01-31T00:37:39;8.48;;;3.47;;
18512;SDS011;9385;48.380;9.744;2023-01-31T00:40:06;6.75;;;3.22;;
18512;SDS011;9385;48.380;9.744;2023-01-31T00:42:33;5.85;;;2.92;;
18512;SDS011;9385;48.380;9.744;2023-01-31T00:45:00;8.45;;;3.20;;
18512;SDS011;9385;48.380;9.744;2023-01-31T00:47:28;8.07;;;3.47;;
18512;SDS011;9385;48.380;9.744;2023-01-31T00:49:55;7.95;;;3.53;;
18512;SDS011;9385;48.380;9.744;2023-01-31T00:52:22;9.82;;;3.30;;
18512;SDS011;9385;48.380;9.744;2023-01-31T00:54:48;7.82;;;3.13;;
18512;SDS011;9385;48.380;9.744;2023-01-31T00:57:15;8.65;;;3.42;;
18512;SDS011;9385;48.380;9.744;2023-01-31T00:59:42;7.18;;;3.55;;
18512;SDS011;9385;48.380;9.744;2023-01-31T01:02:09;9.13;;;3.50;;
18512;SDS011;9385;48.380;9.744;2023-01-31T01:04:37;7.65;;;3.40;;
18512;SDS011;9385;48.380;9.744;2023-01-31T01:07:04;8.43;;;3.15;;
18512;SDS011;9385;48.380;9.744;2023-01-31T01:09:30;6.38;;;2.95;;
18512;SDS011;9385;48.380;9.744;2023-01-31T01:11:57;9.00;;;3.25;;
18512;SDS011;9385;48.380;9.744;2023-01-31T01:14:24;7.40;;;3.13;;
18512;SDS011;9385;48.380;9.744;2023-01-31T01:16:51;8.32;;;3.28;;
18512;SDS011;9385;48.380;9.744;2023-01-31T01:19:18;8.43;;;3.20;;
18512;SDS011;9385;48.380;9.744;2023-01-31T01:21:47;8.73;;;3.50;;
18512;SDS011;9385;48.380;9.744;2023-01-31T01:24:14;7.82;;;3.40;;
18512;SDS011;9385;48.380;9.744;2023-01-31T01:26:44;6.82;;;3.35;;
18512;SDS011;9385;48.380;9.744;2023-01-31T01:29:11;7.65;;;3.42;;
18512;SDS011;9385;48.380;9.744;2023-01-31T01:31:38;8.30;;;3.42;;
18512;SDS011;9385;48.380;9.744;2023-01-31T01:34:06;7.95;;;3.38;;
18512;SDS011;9385;48.380;9.744;2023-01-31T01:36:36;10.25;;;3.72;;
18512;SDS011;9385;48.380;9.744;2023-01-31T01:39:06;11.05;;;3.75;;
18512;SDS011;9385;48.380;9.744;2023-01-31T01:41:34;10.18;;;3.70;;
18512;SDS011;9385;48.380;9.744;2023-01-31T01:44:02;9.80;;;3.83;;
18512;SDS011;9385;48.380;9.744;2023-01-31T01:46:49;10.80;;;3.33;;
18512;SDS011;9385;48.380;9.744;2023-01-31T01:49:17;9.50;;;3.65;;
18512;SDS011;9385;48.380;9.744;2023-01-31T01:51:54;8.23;;;3.50;;
18512;SDS011;9385;48.380;9.744;2023-01-31T01:54:27;12.63;;;3.47;;
18512;SDS011;9385;48.380;9.744;2023-01-31T01:57:01;8.60;;;3.78;;
18512;SDS011;9385;48.380;9.744;2023-01-31T01:59:30;9.45;;;3.67;;
18512;SDS011;9385;48.380;9.744;2023-01-31T02:02:00;8.68;;;3.78;;
18512;SDS011;9385;48.380;9.744;2023-01-31T02:04:28;8.15;;;3.17;;
18512;SDS011;9385;48.380;9.744;2023-01-31T02:06:59;9.98;;;3.40;;
18512;SDS011;9385;48.380;9.744;2023-01-31T02:09:33;9.90;;;3.60;;
18512;SDS011;9385;48.380;9.744;2023-01-31T02:12:04;8.18;;;3.40;;
18512;SDS011;9385;48.380;9.744;2023-01-31T02:14:31;10.85;;;3.30;;
18512;SDS011;9385;48.380;9.744;2023-01-31T02:16:58;9.43;;;3.10;;
18512;SDS011;9385;48.380;9.744;2023-01-31T02:19:27;10.45;;;3.55;;
18512;SDS011;9385;48.380;9.744;2023-01-31T02:22:09;6.47;;;3.00;;
18512;SDS011;9385;48.380;9.744;2023-01-31T02:24:54;8.57;;;2.90;;
18512;SDS011;9385;48.380;9.744;2023-01-31T02:31:24;8.98;;;2.85;;
18512;SDS011;9385;48.380;9.744;2023-01-31T02:34:20;6.90;;;2.70;;
18512;SDS011;9385;48.380;9.744;2023-01-31T02:36:56;7.43;;;2.88;;
18512;SDS011;9385;48.380;9.744;2023-01-31T02:39:32;8.63;;;3.28;;
18512;SDS011;9385;48.380;9.744;2023-01-31T02:42:05;8.23;;;3.00;;
18512;SDS011;9385;48.380;9.744;2023-01-31T02:44:41;8.82;;;2.95;;
18512;SDS011;9385;48.380;9.744;2023-01-31T02:47:33;10.70;;;2.72;;
18512;SDS011;9385;48.380;9.744;2023-01-31T02:50:11;9.35;;;2.63;;
18512;SDS011;9385;48.380;9.744;2023-01-31T02:52:45;8.55;;;2.75;;
18512;SDS011;9385;48.380;9.744;2023-01-31T02:55:16;8.57;;;3.10;;
18512;SDS011;9385;48.380;9.744;2023-01-31T02:58:04;9.90;;;2.95;;
18512;SDS011;9385;48.380;9.744;2023-01-31T03:00:33;11.30;;;3.03;;
18512;SDS011;9385;48.380;9.744;2023-01-31T03:03:03;8.05;;;3.03;;
18512;SDS011;9385;48.380;9.744;2023-01-31T03:05:34;8.50;;;2.90;;
18512;SDS011;9385;48.380;9.744;2023-01-31T03:08:01;7.20;;;2.90;;
18512;SDS011;9385;48.380;9.744;2023-01-31T03:10:37;8.15;;;2.97;;
18512;SDS011;9385;48.380;9.744;2023-01-31T03:13:38;9.52;;;3.00;;
18512;SDS011;9385;48.380;9.744;2023-01-31T03:16:16;7.10;;;2.72;;
18512;SDS011;9385;48.380;9.744;2023-01-31T03:19:07;9.15;;;2.90;;
18512;SDS011;9385;48.380;9.744;2023-01-31T03:21:40;10.43;;;3.17;;
18512;SDS011;9385;48.380;9.744;2023-01-31T03:24:11;12.40;;;3.13;;
18512;SDS011;9385;48.380;9.744;2023-01-31T03:26:39;9.05;;;2.95;;
18512;SDS011;9385;48.380;9.744;2023-01-31T03:29:07;10.93;;;3.30;;
18512;SDS011;9385;48.380;9.744;2023-01-31T03:31:40;8.82;;;2.92;;
18512;SDS011;9385;48.380;9.744;2023-01-31T03:34:12;6.50;;;2.87;;
18512;SDS011;9385;48.380;9.744;2023-01-31T03:36:46;8.95;;;2.95;;
18512;SDS011;9385;48.380;9.744;2023-01-31T03:39:19;10.40;;;3.00;;
18512;SDS011;9385;48.380;9.744;2023-01-31T03:41:57;6.68;;;2.83;;
18512;SDS011;9385;48.380;9.744;2023-01-31T03:44:33;9.48;;;3.03;;
18512;SDS011;9385;48.380;9.744;2023-01-31T03:47:08;7.65;;;2.72;;
18512;SDS011;9385;48.380;9.744;2023-01-31T03:49:39;11.10;;;2.90;;
18512;SDS011;9385;48.380;9.744;2023-01-31T03:52:09;10.88;;;3.10;;
18512;SDS011;9385;48.380;9.744;2023-01-31T03:54:38;9.32;;;3.10;;
18512;SDS011;9385;48.380;9.744;2023-01-31T03:57:11;10.20;;;3.38;;
18512;SDS011;9385;48.380;9.744;2023-01-31T03:59:42;8.48;;;3.38;;
18512;SDS011;9385;48.380;9.744;2023-01-31T04:02:11;10.50;;;3.58;;
18512;SDS011;9385;48.380;9.744;2023-01-31T04:04:43;13.13;;;4.03;;
18512;SDS011;9385;48.380;9.744;2023-01-31T04:07:15;12.48;;;4.00;;
18512;SDS011;9385;48.380;9.744;2023-01-31T04:09:43;10.88;;;4.15;;
18512;SDS011;9385;48.380;9.744;2023-01-31T04:12:10;10.98;;;4.10;;
18512;SDS011;9385;48.380;9.744;2023-01-31T04:14:39;12.70;;;4.47;;
18512;SDS011;9385;48.380;9.744;2023-01-31T04:17:06;8.88;;;3.90;;
18512;SDS011;9385;48.380;9.744;2023-01-31T04:19:33;9.70;;;4.25;;
18512;SDS011;9385;48.380;9.744;2023-01-31T04:22:00;11.23;;;3.65;;
18512;SDS011;9385;48.380;9.744;2023-01-31T04:24:28;7.80;;;3.40;;
18512;SDS011;9385;48.380;9.744;2023-01-31T04:26:55;11.02;;;3.38;;
18512;SDS011;9385;48.380;9.744;2023-01-31T04:29:21;9.77;;;3.63;;
18512;SDS011;9385;48.380;9.744;2023-01-31T04:31:48;11.45;;;3.45;;
18512;SDS011;9385;48.380;9.744;2023-01-31T04:34:15;9.98;;;4.10;;
18512;SDS011;9385;48.380;9.744;2023-01-31T04:36:42;10.38;;;4.40;;
18512;SDS011;9385;48.380;9.744;2023-01-31T04:39:09;10.52;;;3.50;;
18512;SDS011;9385;48.380;9.744;2023-01-31T04:41:39;9.18;;;3.60;;
18512;SDS011;9385;48.380;9.744;2023-01-31T04:44:05;8.68;;;3.67;;
18512;SDS011;9385;48.380;9.744;2023-01-31T04:46:32;8.27;;;3.40;;
18512;SDS011;9385;48.380;9.744;2023-01-31T04:48:59;8.15;;;3.00;;
18512;SDS011;9385;48.380;9.744;2023-01-31T04:51:26;8.15;;;3.38;;
18512;SDS011;9385;48.380;9.744;2023-01-31T04:53:52;7.50;;;3.10;;
18512;SDS011;9385;48.380;9.744;2023-01-31T04:56:19;9.48;;;3.20;;
18512;SDS011;9385;48.380;9.744;2023-01-31T04:58:48;7.55;;;3.10;;
18512;SDS011;9385;48.380;9.744;2023-01-31T05:01:15;10.00;;;3.40;;
18512;SDS011;9385;48.380;9.744;2023-01-31T05:03:41;9.45;;;3.28;;
18512;SDS011;9385;48.380;9.744;2023-01-31T05:06:08;9.65;;;3.38;;
18512;SDS011;9385;48.380;9.744;2023-01-31T05:08:35;10.23;;;3.35;;
18512;SDS011;9385;48.380;9.744;2023-01-31T05:11:04;10.73;;;3.40;;
18512;SDS011;9385;48.380;9.744;2023-01-31T05:13:31;12.15;;;3.55;;
18512;SDS011;9385;48.380;9.744;2023-01-31T05:16:03;8.50;;;3.30;;
18512;SDS011;9385;48.380;9.744;2023-01-31T05:18:31;8.45;;;3.67;;
18512;SDS011;9385;48.380;9.744;2023-01-31T05:20:59;10.60;;;3.40;;
18512;SDS011;9385;48.380;9.744;2023-01-31T05:23:26;10.13;;;3.57;;
18512;SDS011;9385;48.380;9.744;2023-01-31T05:25:53;12.13;;;3.38;;
18512;SDS011;9385;48.380;9.744;2023-01-31T05:28:19;10.98;;;3.50;;
18512;SDS011;9385;48.380;9.744;2023-01-31T05:30:47;9.18;;;3.83;;
18512;SDS011;9385;48.380;9.744;2023-01-31T05:33:15;8.15;;;3.60;;
18512;SDS011;9385;48.380;9.744;2023-01-31T05:35:44;8.90;;;3.42;;
18512;SDS011;9385;48.380;9.744;2023-01-31T05:38:11;13.45;;;3.60;;
18512;SDS011;9385;48.380;9.744;2023-01-31T05:40:38;7.78;;;3.33;;
18512;SDS011;9385;48.380;9.744;2023-01-31T05:43:05;9.82;;;3.50;;
18512;SDS011;9385;48.380;9.744;2023-01-31T05:45:32;8.13;;;3.60;;
18512;SDS011;9385;48.380;9.744;2023-01-31T05:47:58;8.95;;;3.60;;
18512;SDS011;9385;48.380;9.744;2023-01-31T05:50:27;6.18;;;3.10;;
18512;SDS011;9385;48.380;9.744;2023-01-31T05:52:54;12.18;;;3.70;;
18512;SDS011;9385;48.380;9.744;2023-01-31T05:55:23;11.95;;;4.10;;
18512;SDS011;9385;48.380;9.744;2023-01-31T05:57:51;12.70;;;4.30;;
18512;SDS011;9385;48.380;9.744;2023-01-31T06:00:18;11.90;;;4.60;;
18512;SDS011;9385;48.380;9.744;2023-01-31T06:02:48;10.68;;;4.38;;
18512;SDS011;9385;48.380;9.744;2023-01-31T06:05:15;12.13;;;4.37;;
18512;SDS011;9385;48.380;9.744;2023-01-31T06:07:44;10.00;;;4.78;;
18512;SDS011;9385;48.380;9.744;2023-01-31T06:10:10;10.80;;;4.63;;
18512;SDS011;9385;48.380;9.744;2023-01-31T06:12:37;10.95;;;4.35;;
18512;SDS011;9385;48.380;9.744;2023-01-31T06:15:04;12.50;;;4.70;;
18512;SDS011;9385;48.380;9.744;2023-01-31T06:17:32;11.00;;;4.53;;
18512;SDS011;9385;48.380;9.744;2023-01-31T06:20:01;11.52;;;4.07;;
18512;SDS011;9385;48.380;9.744;2023-01-31T06:22:28;12.43;;;4.30;;
18512;SDS011;9385;48.380;9.744;2023-01-31T06:24:56;11.93;;;4.32;;
18512;SDS011;9385;48.380;9.744;2023-01-31T06:27:23;17.95;;;5.32;;
18512;SDS011;9385;48.380;9.744;2023-01-31T06:29:50;14.35;;;6.38;;
18512;SDS011;9385;48.380;9.744;2023-01-31T06:32:16;23.27;;;9.27;;
18512;SDS011;9385;48.380;9.744;2023-01-31T06:34:43;17.35;;;6.65;;
18512;SDS011;9385;48.380;9.744;2023-01-31T06:37:10;13.20;;;5.68;;
18512;SDS011;9385;48.380;9.744;2023-01-31T06:39:37;12.38;;;5.20;;
18512;SDS011;9385;48.380;9.744;2023-01-31T06:42:05;12.98;;;5.28;;
18512;SDS011;9385;48.380;9.744;2023-01-31T06:44:32;11.27;;;4.63;;
18512;SDS011;9385;48.380;9.744;2023-01-31T06:46:59;12.40;;;4.70;;
18512;SDS011;9385;48.380;9.744;2023-01-31T06:49:26;13.18;;;5.57;;
18512;SDS011;9385;48.380;9.744;2023-01-31T06:51:53;11.57;;;4.78;;
18512;SDS011;9385;48.380;9.744;2023-01-31T06:54:20;14.85;;;5.43;;
18512;SDS011;9385;48.380;9.744;2023-01-31T06:56:47;13.95;;;4.78;;
18512;SDS011;9385;48.380;9.744;2023-01-31T06:59:15;11.32;;;4.20;;
18512;SDS011;9385;48.380;9.744;2023-01-31T07:01:42;14.65;;;5.47;;
18512;SDS011;9385;48.380;9.744;2023-01-31T07:04:08;11.65;;;4.57;;
18512;SDS011;9385;48.380;9.744;2023-01-31T07:06:35;12.90;;;4.87;;
18512;SDS011;9385;48.380;9.744;2023-01-31T07:09:02;13.35;;;5.10;;
18512;SDS011;9385;48.380;9.744;2023-01-31T07:11:29;12.57;;;5.45;;
18512;SDS011;9385;48.380;9.744;2023-01-31T07:13:56;11.50;;;4.72;;
18512;SDS011;9385;48.380;9.744;2023-01-31T07:16:24;12.43;;;4.90;;
18512;SDS011;9385;48.380;9.744;2023-01-31T07:18:51;13.43;;;4.93;;
18512;SDS011;9385;48.380;9.744;2023-01-31T07:21:18;15.38;;;5.50;;
18512;SDS011;9385;48.380;9.744;2023-01-31T07:23:45;15.98;;;5.10;;
18512;SDS011;9385;48.380;9.744;2023-01-31T07:26:12;10.75;;;4.70;;
18512;SDS011;9385;48.380;9.744;2023-01-31T07:28:39;10.10;;;4.60;;
18512;SDS011;9385;48.380;9.744;2023-01-31T07:31:07;12.57;;;4.43;;
18512;SDS011;9385;48.380;9.744;2023-01-31T07:33:37;12.43;;;4.93;;
18512;SDS011;9385;48.380;9.744;2023-01-31T07:36:05;14.30;;;5.50;;
18512;SDS011;9385;48.380;9.744;2023-01-31T07:38:33;12.60;;;5.00;;
18512;SDS011;9385;48.380;9.744;2023-01-31T07:41:00;12.95;;;5.50;;
18512;SDS011;9385;48.380;9.744;2023-01-31T07:43:29;17.08;;;6.50;;
18512;SDS011;9385;48.380;9.744;2023-01-31T07:45:56;13.00;;;6.40;;
18512;SDS011;9385;48.380;9.744;2023-01-31T07:48:23;16.98;;;6.47;;
18512;SDS011;9385;48.380;9.744;2023-01-31T07:50:52;18.48;;;6.70;;
18512;SDS011;9385;48.380;9.744;2023-01-31T07:53:23;15.60;;;6.68;;
18512;SDS011;9385;48.380;9.744;2023-01-31T07:55:50;15.52;;;6.70;;
18512;SDS011;9385;48.380;9.744;2023-01-31T07:58:16;14.07;;;7.57;;
18512;SDS011;9385;48.380;9.744;2023-01-31T08:00:43;18.70;;;7.72;;
18512;SDS011;9385;48.380;9.744;2023-01-31T08:03:28;14.23;;;7.28;;
18512;SDS011;9385;48.380;9.744;2023-01-31T08:06:01;15.32;;;6.88;;
18512;SDS011;9385;48.380;9.744;2023-01-31T08:08:29;12.63;;;6.00;;
18512;SDS011;9385;48.380;9.744;2023-01-31T08:10:55;17.55;;;6.68;;
18512;SDS011;9385;48.380;9.744;2023-01-31T08:13:22;13.07;;;6.13;;
18512;SDS011;9385;48.380;9.744;2023-01-31T08:15:51;16.90;;;6.35;;
18512;SDS011;9385;48.380;9.744;2023-01-31T08:18:18;14.35;;;6.03;;
18512;SDS011;9385;48.380;9.744;2023-01-31T08:20:45;14.52;;;6.22;;
18512;SDS011;9385;48.380;9.744;2023-01-31T08:23:13;16.30;;;6.30;;
18512;SDS011;9385;48.380;9.744;2023-01-31T08:25:40;12.90;;;6.32;;
18512;SDS011;9385;48.380;9.744;2023-01-31T08:28:07;13.05;;;6.75;;
18512;SDS011;9385;48.380;9.744;2023-01-31T08:30:37;16.98;;;7.35;;
18512;SDS011;9385;48.380;9.744;2023-01-31T08:33:05;16.05;;;6.88;;
18512;SDS011;9385;48.380;9.744;2023-01-31T08:35:32;12.07;;;6.05;;
18512;SDS011;9385;48.380;9.744;2023-01-31T08:37:59;14.35;;;6.40;;
18512;SDS011;9385;48.380;9.744;2023-01-31T08:40:27;13.90;;;6.13;;
18512;SDS011;9385;48.380;9.744;2023-01-31T08:42:54;14.32;;;5.75;;
18512;SDS011;9385;48.380;9.744;2023-01-31T08:45:21;14.15;;;6.60;;
18512;SDS011;9385;48.380;9.744;2023-01-31T08:47:52;14.05;;;6.63;;
18512;SDS011;9385;48.380;9.744;2023-01-31T08:50:20;13.63;;;6.07;;
18512;SDS011;9385;48.380;9.744;2023-01-31T08:52:50;10.23;;;5.40;;
18512;SDS011;9385;48.380;9.744;2023-01-31T08:55:18;10.15;;;5.18;;
18512;SDS011;9385;48.380;9.744;2023-01-31T08:57:46;11.63;;;5.38;;
18512;SDS011;9385;48.380;9.744;2023-01-31T09:00:13;12.77;;;5.78;;
18512;SDS011;9385;48.380;9.744;2023-01-31T09:02:41;12.40;;;5.40;;
18512;SDS011;9385;48.380;9.744;2023-01-31T09:05:08;11.87;;;4.97;;
18512;SDS011;9385;48.380;9.744;2023-01-31T09:07:35;11.63;;;5.00;;
18512;SDS011;9385;48.380;9.744;2023-01-31T09:10:02;13.15;;;5.20;;
18512;SDS011;9385;48.380;9.744;2023-01-31T09:12:29;11.27;;;4.70;;
18512;SDS011;9385;48.380;9.744;2023-01-31T09:14:57;11.80;;;4.90;;
18512;SDS011;9385;48.380;9.744;2023-01-31T09:17:24;9.63;;;4.30;;
18512;SDS011;9385;48.380;9.744;2023-01-31T09:19:51;16.30;;;5.68;;
18512;SDS011;9385;48.380;9.744;2023-01-31T09:22:17;13.48;;;4.90;;
18512;SDS011;9385;48.380;9.744;2023-01-31T09:24:44;10.25;;;4.40;;
18512;SDS011;9385;48.380;9.744;2023-01-31T09:27:11;13.90;;;4.43;;
18512;SDS011;9385;48.380;9.744;2023-01-31T09:29:38;10.32;;;3.85;;
18512;SDS011;9385;48.380;9.744;2023-01-31T09:32:06;9.70;;;3.65;;
18512;SDS011;9385;48.380;9.744;2023-01-31T09:34:33;13.02;;;4.00;;
18512;SDS011;9385;48.380;9.744;2023-01-31T09:37:00;13.63;;;4.25;;
18512;SDS011;9385;48.380;9.744;2023-01-31T09:39:27;10.60;;;4.30;;
18512;SDS011;9385;48.380;9.744;2023-01-31T09:41:54;14.75;;;7.25;;
18512;SDS011;9385;48.380;9.744;2023-01-31T09:44:24;14.52;;;5.50;;
18512;SDS011;9385;48.380;9.744;2023-01-31T09:46:54;18.45;;;8.60;;
18512;SDS011;9385;48.380;9.744;2023-01-31T09:49:30;26.58;;;14.02;;
18512;SDS011;9385;48.380;9.744;2023-01-31T09:52:04;22.40;;;10.73;;
18512;SDS011;9385;48.380;9.744;2023-01-31T09:54:32;15.52;;;8.73;;
18512;SDS011;9385;48.380;9.744;2023-01-31T09:57:04;14.65;;;7.35;;
18512;SDS011;9385;48.380;9.744;2023-01-31T09:59:40;13.73;;;4.97;;
18512;SDS011;9385;48.380;9.744;2023-01-31T10:02:15;13.43;;;5.45;;
18512;SDS011;9385;48.380;9.744;2023-01-31T10:05:03;13.10;;;5.90;;
18512;SDS011;9385;48.380;9.744;2023-01-31T10:07:40;11.07;;;3.30;;
18512;SDS011;9385;48.380;9.744;2023-01-31T10:10:14;12.68;;;3.75;;
18512;SDS011;9385;48.380;9.744;2023-01-31T10:12:50;12.25;;;4.22;;
18512;SDS011;9385;48.380;9.744;2023-01-31T10:15:21;13.32;;;4.93;;
18512;SDS011;9385;48.380;9.744;2023-01-31T10:17:55;10.33;;;5.10;;
18512;SDS011;9385;48.380;9.744;2023-01-31T10:20:31;14.50;;;5.60;;
18512;SDS011;9385;48.380;9.744;2023-01-31T10:23:03;9.98;;;3.95;;
18512;SDS011;9385;48.380;9.744;2023-01-31T10:25:33;11.38;;;3.22;;
18512;SDS011;9385;48.380;9.744;2023-01-31T10:28:05;10.38;;;3.55;;
18512;SDS011;9385;48.380;9.744;2023-01-31T10:30:40;8.45;;;3.10;;
18512;SDS011;9385;48.380;9.744;2023-01-31T10:33:15;10.23;;;3.15;;
18512;SDS011;9385;48.380;9.744;2023-01-31T10:35:50;9.18;;;3.10;;
18512;SDS011;9385;48.380;9.744;2023-01-31T10:38:20;9.88;;;3.38;;
18512;SDS011;9385;48.380;9.744;2023-01-31T10:40:50;10.10;;;3.45;;
18512;SDS011;9385;48.380;9.744;2023-01-31T10:43:27;9.10;;;3.70;;
18512;SDS011;9385;48.380;9.744;2023-01-31T10:45:59;8.70;;;3.10;;
18512;SDS011;9385;48.380;9.744;2023-01-31T10:48:27;14.38;;;6.22;;
18512;SDS011;9385;48.380;9.744;2023-01-31T10:51:00;8.93;;;3.40;;
18512;SDS011;9385;48.380;9.744;2023-01-31T10:53:36;8.30;;;3.15;;
18512;SDS011;9385;48.380;9.744;2023-01-31T10:56:11;8.75;;;2.83;;
18512;SDS011;9385;48.380;9.744;2023-01-31T10:58:44;9.10;;;3.17;;
18512;SDS011;9385;48.380;9.744;2023-01-31T11:01:11;11.45;;;3.80;;
18512;SDS011;9385;48.380;9.744;2023-01-31T11:03:39;9.83;;;3.50;;
18512;SDS011;9385;48.380;9.744;2023-01-31T11:06:12;10.63;;;3.80;;
18512;SDS011;9385;48.380;9.744;2023-01-31T11:08:41;8.75;;;3.30;;
18512;SDS011;9385;48.380;9.744;2023-01-31T11:11:11;9.85;;;3.33;;
18512;SDS011;9385;48.380;9.744;2023-01-31T11:13:42;9.00;;;3.55;;
18512;SDS011;9385;48.380;9.744;2023-01-31T11:16:21;9.77;;;3.67;;
18512;SDS011;9385;48.380;9.744;2023-01-31T11:18:50;10.13;;;3.70;;
18512;SDS011;9385;48.380;9.744;2023-01-31T11:21:20;10.00;;;4.18;;
18512;SDS011;9385;48.380;9.744;2023-01-31T11:23:49;11.48;;;4.00;;
18512;SDS011;9385;48.380;9.744;2023-01-31T11:26:24;9.02;;;3.70;;
18512;SDS011;9385;48.380;9.744;2023-01-31T11:28:53;10.07;;;4.30;;
18512;SDS011;9385;48.380;9.744;2023-01-31T11:31:26;10.52;;;4.70;;
18512;SDS011;9385;48.380;9.744;2023-01-31T11:33:56;11.05;;;4.35;;
18512;SDS011;9385;48.380;9.744;2023-01-31T11:36:30;10.73;;;4.43;;
18512;SDS011;9385;48.380;9.744;2023-01-31T11:38:58;9.27;;;4.43;;
18512;SDS011;9385;48.380;9.744;2023-01-31T11:41:43;8.82;;;4.15;;
18512;SDS011;9385;48.380;9.744;2023-01-31T11:44:11;10.27;;;4.60;;
18512;SDS011;9385;48.380;9.744;2023-01-31T11:46:41;8.65;;;4.38;;
18512;SDS011;9385;48.380;9.744;2023-01-31T11:49:18;8.20;;;4.00;;
18512;SDS011;9385;48.380;9.744;2023-01-31T11:51:50;9.35;;;3.90;;
18512;SDS011;9385;48.380;9.744;2023-01-31T11:54:18;9.43;;;3.80;;
18512;SDS011;9385;48.380;9.744;2023-01-31T11:56:56;10.07;;;4.03;;
18512;SDS011;9385;48.380;9.744;2023-01-31T11:59:25;9.27;;;4.25;;
18512;SDS011;9385;48.380;9.744;2023-01-31T12:01:55;11.07;;;4.97;;
18512;SDS011;9385;48.380;9.744;2023-01-31T12:04:25;11.15;;;4.55;;
18512;SDS011;9385;48.380;9.744;2023-01-31T12:06:58;11.55;;;4.38;;
18512;SDS011;9385;48.380;9.744;2023-01-31T12:09:28;9.83;;;3.97;;
18512;SDS011;9385;48.380;9.744;2023-01-31T12:11:57;9.53;;;3.87;;
18512;SDS011;9385;48.380;9.744;2023-01-31T12:14:34;9.40;;;4.10;;
18512;SDS011;9385;48.380;9.744;2023-01-31T12:17:03;11.10;;;4.15;;
18512;SDS011;9385;48.380;9.744;2023-01-31T12:19:34;8.55;;;3.90;;
18512;SDS011;9385;48.380;9.744;2023-01-31T12:22:14;9.07;;;3.50;;
18512;SDS011;9385;48.380;9.744;2023-01-31T12:24:47;7.88;;;3.80;;
18512;SDS011;9385;48.380;9.744;2023-01-31T12:27:27;9.60;;;3.55;;
18512;SDS011;9385;48.380;9.744;2023-01-31T12:33:08;8.60;;;4.00;;
18512;SDS011;9385;48.380;9.744;2023-01-31T12:35:49;13.48;;;3.60;;
18512;SDS011;9385;48.380;9.744;2023-01-31T12:38:34;7.23;;;3.40;;
18512;SDS011;9385;48.380;9.744;2023-01-31T12:41:14;6.30;;;1.90;;
18512;SDS011;9385;48.380;9.744;2023-01-31T12:43:55;9.60;;;2.70;;
18512;SDS011;9385;48.380;9.744;2023-01-31T12:46:34;8.80;;;2.60;;
18512;SDS011;9385;48.380;9.744;2023-01-31T12:52:08;6.38;;;1.98;;
18512;SDS011;9385;48.380;9.744;2023-01-31T12:54:48;3.60;;;1.45;;
18512;SDS011;9385;48.380;9.744;2023-01-31T12:57:28;4.47;;;1.60;;
18512;SDS011;9385;48.380;9.744;2023-01-31T13:00:04;5.07;;;1.90;;
18512;SDS011;9385;48.380;9.744;2023-01-31T13:02:42;6.33;;;1.90;;
18512;SDS011;9385;48.380;9.744;2023-01-31T13:05:21;7.00;;;2.33;;
18512;SDS011;9385;48.380;9.744;2023-01-31T13:07:52;3.88;;;1.70;;
18512;SDS011;9385;48.380;9.744;2023-01-31T13:10:29;13.90;;;6.37;;
18512;SDS011;9385;48.380;9.744;2023-01-31T13:13:02;5.90;;;2.15;;
18512;SDS011;9385;48.380;9.744;2023-01-31T13:15:31;7.53;;;2.00;;
18512;SDS011;9385;48.380;9.744;2023-01-31T13:18:06;10.20;;;3.40;;
18512;SDS011;9385;48.380;9.744;2023-01-31T13:20:36;6.78;;;1.95;;
18512;SDS011;9385;48.380;9.744;2023-01-31T13:23:09;9.02;;;3.13;;
18512;SDS011;9385;48.380;9.744;2023-01-31T13:25:41;6.55;;;2.08;;
18512;SDS011;9385;48.380;9.744;2023-01-31T13:28:12;6.97;;;2.50;;
18512;SDS011;9385;48.380;9.744;2023-01-31T13:30:44;4.22;;;1.80;;
18512;SDS011;9385;48.380;9.744;2023-01-31T13:33:17;6.03;;;2.03;;
18512;SDS011;9385;48.380;9.744;2023-01-31T13:35:55;6.70;;;2.13;;
18512;SDS011;9385;48.380;9.744;2023-01-31T13:38:28;6.75;;;1.52;;
18512;SDS011;9385;48.380;9.744;2023-01-31T13:41:01;4.95;;;1.60;;
18512;SDS011;9385;48.380;9.744;2023-01-31T13:43:30;8.73;;;1.92;;
18512;SDS011;9385;48.380;9.744;2023-01-31T13:45:57;5.73;;;1.60;;
18512;SDS011;9385;48.380;9.744;2023-01-31T13:48:27;5.75;;;1.70;;
18512;SDS011;9385;48.380;9.744;2023-01-31T13:51:00;4.72;;;1.70;;
18512;SDS011;9385;48.380;9.744;2023-01-31T13:53:35;4.55;;;1.50;;
18512;SDS011;9385;48.380;9.744;2023-01-31T13:56:11;4.60;;;1.80;;
18512;SDS011;9385;48.380;9.744;2023-01-31T13:58:43;7.13;;;2.28;;
18512;SDS011;9385;48.380;9.744;2023-01-31T14:01:14;5.25;;;1.60;;
18512;SDS011;9385;48.380;9.744;2023-01-31T14:06:53;7.40;;;1.95;;
18512;SDS011;9385;48.380;9.744;2023-01-31T14:09:21;5.57;;;1.58;;
18512;SDS011;9385;48.380;9.744;2023-01-31T14:11:50;6.95;;;2.08;;
18512;SDS011;9385;48.380;9.744;2023-01-31T14:14:25;7.13;;;2.20;;
18512;SDS011;9385;48.380;9.744;2023-01-31T14:17:02;6.72;;;1.95;;
18512;SDS011;9385;48.380;9.744;2023-01-31T14:22:36;7.90;;;2.40;;
18512;SDS011;9385;48.380;9.744;2023-01-31T14:25:09;6.32;;;1.80;;
18512;SDS011;9385;48.380;9.744;2023-01-31T14:27:41;5.10;;;1.92;;
18512;SDS011;9385;48.380;9.744;2023-01-31T14:30:19;6.97;;;2.05;;
18512;SDS011;9385;48.380;9.744;2023-01-31T14:32:57;6.25;;;2.08;;
18512;SDS011;9385;48.380;9.744;2023-01-31T14:35:42;7.18;;;2.20;;
18512;SDS011;9385;48.380;9.744;2023-01-31T14:38:29;5.63;;;2.20;;
18512;SDS011;9385;48.380;9.744;2023-01-31T14:41:08;6.60;;;2.70;;
18512;SDS011;9385;48.380;9.744;2023-01-31T14:43:47;8.30;;;3.07;;
18512;SDS011;9385;48.380;9.744;2023-01-31T14:46:36;5.72;;;2.03;;
18512;SDS011;9385;48.380;9.744;2023-01-31T14:49:37;5.25;;;2.42;;
18512;SDS011;9385;48.380;9.744;2023-01-31T14:52:27;5.07;;;1.75;;
18512;SDS011;9385;48.380;9.744;2023-01-31T14:55:11;5.38;;;2.00;;
18512;SDS011;9385;48.380;9.744;2023-01-31T14:57:49;6.68;;;1.95;;
18512;SDS011;9385;48.380;9.744;2023-01-31T15:00:23;8.38;;;3.60;;
18512;SDS011;9385;48.380;9.744;2023-01-31T15:02:53;6.40;;;2.05;;
18512;SDS011;9385;48.380;9.744;2023-01-31T15:05:37;7.22;;;2.25;;
18512;SDS011;9385;48.380;9.744;2023-01-31T15:14:16;6.45;;;2.10;;
18512;SDS011;9385;48.380;9.744;2023-01-31T15:16:52;4.97;;;1.90;;
18512;SDS011;9385;48.380;9.744;2023-01-31T15:19:22;6.25;;;1.75;;
18512;SDS011;9385;48.380;9.744;2023-01-31T15:21:52;6.88;;;1.95;;
18512;SDS011;9385;48.380;9.744;2023-01-31T15:24:23;5.60;;;2.00;;
18512;SDS011;9385;48.380;9.744;2023-01-31T15:26:54;6.22;;;2.00;;
18512;SDS011;9385;48.380;9.744;2023-01-31T15:29:23;8.40;;;2.85;;
18512;SDS011;9385;48.380;9.744;2023-01-31T15:31:54;6.32;;;2.20;;
18512;SDS011;9385;48.380;9.744;2023-01-31T15:34:26;5.55;;;2.10;;
18512;SDS011;9385;48.380;9.744;2023-01-31T15:36:59;7.50;;;2.28;;
18512;SDS011;9385;48.380;9.744;2023-01-31T15:39:31;4.50;;;2.10;;